sensor_id;sensor_type;location;lat;lon;timestamp;P1;durP1;ratioP1;P2;durP2;ratioP2
36211;SDS011;22247;48.586;13.492;2022-08-01T00:00:18;5.00;;;1.25;;
36211;SDS011;22247;48.586;13.492;2022-08-01T00:02:49;1.73;;;1.50;;
36211;SDS011;22247;48.586;13.492;2022-08-01T00:05:15;1.95;;;1.65;;
36211;SDS011;22247;48.586;13.492;2022-08-01T00:07:41;2.55;;;1.70;;
36211;SDS011;22247;48.586;13.492;2022-08-01T00:10:08;2.00;;;1.55;;
36211;SDS011;22247;48.586;13.492;2022-08-01T00:12:36;2.72;;;1.67;;
36211;SDS011;22247;48.586;13.492;2022-08-01T00:15:04;4.18;;;1.65;;
36211;SDS011;22247;48.586;13.492;2022-08-01T00:17:33;2.20;;;1.75;;
36211;SDS011;22247;48.586;13.492;2022-08-01T00:20:02;2.47;;;1.77;;
36211;SDS011;22247;48.586;13.492;2022-08-01T00:22:32;1.85;;;1.60;;
36211;SDS011;22247;48.586;13.492;2022-08-01T00:24:58;2.78;;;1.30;;
36211;SDS011;22247;48.586;13.492;2022-08-01T00:27:27;4.15;;;2.13;;
36211;SDS011;22247;48.586;13.492;2022-08-01T00:29:53;4.95;;;1.85;;
36211;SDS011;22247;48.586;13.492;2022-08-01T00:32:19;7.25;;;1.75;;
36211;SDS011;22247;48.586;13.492;2022-08-01T00:34:44;2.15;;;1.25;;
36211;SDS011;22247;48.586;13.492;2022-08-01T00:37:12;3.05;;;1.50;;
36211;SDS011;22247;48.586;13.492;2022-08-01T00:39:40;3.80;;;1.58;;
36211;SDS011;22247;48.586;13.492;2022-08-01T00:42:09;3.53;;;1.75;;
36211;SDS011;22247;48.586;13.492;2022-08-01T00:44:36;2.03;;;1.38;;
36211;SDS011;22247;48.586;13.492;2022-08-01T00:47:03;1.85;;;1.67;;
36211;SDS011;22247;48.586;13.492;2022-08-01T00:49:30;2.20;;;1.88;;
36211;SDS011;22247;48.586;13.492;2022-08-01T00:51:56;1.73;;;1.00;;
36211;SDS011;22247;48.586;13.492;2022-08-01T00:54:25;1.58;;;1.45;;
36211;SDS011;22247;48.586;13.492;2022-08-01T00:56:53;1.63;;;1.00;;
36211;SDS011;22247;48.586;13.492;2022-08-01T00:59:20;2.95;;;1.33;;
36211;SDS011;22247;48.586;13.492;2022-08-01T01:01:49;3.47;;;1.27;;
36211;SDS011;22247;48.586;13.492;2022-08-01T01:04:16;3.42;;;1.35;;
36211;SDS011;22247;48.586;13.492;2022-08-01T01:14:30;4.78;;;1.55;;
36211;SDS011;22247;48.586;13.492;2022-08-01T01:17:14;3.90;;;1.58;;
36211;SDS011;22247;48.586;13.492;2022-08-01T01:19:45;7.35;;;2.90;;
36211;SDS011;22247;48.586;13.492;2022-08-01T01:27:18;4.40;;;1.88;;
36211;SDS011;22247;48.586;13.492;2022-08-01T01:29:56;5.10;;;1.92;;
36211;SDS011;22247;48.586;13.492;2022-08-01T01:34:52;2.25;;;1.80;;
36211;SDS011;22247;48.586;13.492;2022-08-01T01:37:23;2.58;;;1.67;;
36211;SDS011;22247;48.586;13.492;2022-08-01T01:39:54;6.00;;;1.48;;
36211;SDS011;22247;48.586;13.492;2022-08-01T01:42:22;1.85;;;1.60;;
36211;SDS011;22247;48.586;13.492;2022-08-01T01:44:51;2.90;;;2.15;;
36211;SDS011;22247;48.586;13.492;2022-08-01T01:47:23;2.85;;;1.58;;
36211;SDS011;22247;48.586;13.492;2022-08-01T01:49:55;4.27;;;1.77;;
36211;SDS011;22247;48.586;13.492;2022-08-01T01:52:24;4.43;;;1.58;;
36211;SDS011;22247;48.586;13.492;2022-08-01T01:54:54;2.75;;;1.55;;
36211;SDS011;22247;48.586;13.492;2022-08-01T01:57:24;2.45;;;1.20;;
36211;SDS011;22247;48.586;13.492;2022-08-01T01:59:50;4.45;;;1.60;;
36211;SDS011;22247;48.586;13.492;2022-08-01T02:02:18;3.08;;;1.38;;
36211;SDS011;22247;48.586;13.492;2022-08-01T02:04:47;3.83;;;1.55;;
36211;SDS011;22247;48.586;13.492;2022-08-01T02:07:16;2.50;;;1.67;;
36211;SDS011;22247;48.586;13.492;2022-08-01T02:09:45;3.78;;;1.88;;
36211;SDS011;22247;48.586;13.492;2022-08-01T02:12:12;4.13;;;1.55;;
36211;SDS011;22247;48.586;13.492;2022-08-01T02:14:41;2.25;;;1.35;;
36211;SDS011;22247;48.586;13.492;2022-08-01T02:17:15;1.73;;;1.63;;
36211;SDS011;22247;48.586;13.492;2022-08-01T02:19:45;1.83;;;1.38;;
36211;SDS011;22247;48.586;13.492;2022-08-01T02:22:24;4.00;;;1.47;;
36211;SDS011;22247;48.586;13.492;2022-08-01T02:27:34;2.42;;;1.70;;
36211;SDS011;22247;48.586;13.492;2022-08-01T02:30:08;1.83;;;1.65;;
36211;SDS011;22247;48.586;13.492;2022-08-01T02:32:50;5.18;;;1.75;;
36211;SDS011;22247;48.586;13.492;2022-08-01T02:35:28;4.40;;;2.03;;
36211;SDS011;22247;48.586;13.492;2022-08-01T02:37:57;2.38;;;1.67;;
36211;SDS011;22247;48.586;13.492;2022-08-01T02:40:26;3.05;;;1.48;;
36211;SDS011;22247;48.586;13.492;2022-08-01T02:42:57;3.63;;;2.10;;
36211;SDS011;22247;48.586;13.492;2022-08-01T02:45:28;4.15;;;1.90;;
36211;SDS011;22247;48.586;13.492;2022-08-01T02:48:03;2.08;;;1.48;;
36211;SDS011;22247;48.586;13.492;2022-08-01T02:50:37;4.18;;;2.00;;
36211;SDS011;22247;48.586;13.492;2022-08-01T02:53:07;5.05;;;1.50;;
36211;SDS011;22247;48.586;13.492;2022-08-01T02:55:35;2.33;;;2.10;;
36211;SDS011;22247;48.586;13.492;2022-08-01T02:58:07;3.38;;;1.70;;
36211;SDS011;22247;48.586;13.492;2022-08-01T03:00:35;12.00;;;3.38;;
36211;SDS011;22247;48.586;13.492;2022-08-01T03:03:05;3.28;;;1.45;;
36211;SDS011;22247;48.586;13.492;2022-08-01T03:05:33;2.83;;;2.00;;
36211;SDS011;22247;48.586;13.492;2022-08-01T03:10:31;6.82;;;1.88;;
36211;SDS011;22247;48.586;13.492;2022-08-01T03:12:58;3.17;;;2.05;;
36211;SDS011;22247;48.586;13.492;2022-08-01T03:15:25;4.35;;;2.22;;
36211;SDS011;22247;48.586;13.492;2022-08-01T03:17:55;3.00;;;1.60;;
36211;SDS011;22247;48.586;13.492;2022-08-01T03:20:22;2.30;;;1.67;;
36211;SDS011;22247;48.586;13.492;2022-08-01T03:22:52;2.10;;;1.30;;
36211;SDS011;22247;48.586;13.492;2022-08-01T03:25:21;2.40;;;2.15;;
36211;SDS011;22247;48.586;13.492;2022-08-01T03:27:51;1.73;;;1.35;;
36211;SDS011;22247;48.586;13.492;2022-08-01T03:30:25;4.55;;;2.00;;
36211;SDS011;22247;48.586;13.492;2022-08-01T03:32:57;2.35;;;2.15;;
36211;SDS011;22247;48.586;13.492;2022-08-01T03:35:23;2.90;;;2.63;;
36211;SDS011;22247;48.586;13.492;2022-08-01T03:37:55;4.40;;;2.10;;
36211;SDS011;22247;48.586;13.492;2022-08-01T03:40:37;2.17;;;1.80;;
36211;SDS011;22247;48.586;13.492;2022-08-01T03:43:15;2.75;;;1.80;;
36211;SDS011;22247;48.586;13.492;2022-08-01T03:45:49;3.00;;;2.00;;
36211;SDS011;22247;48.586;13.492;2022-08-01T03:48:22;9.45;;;2.58;;
36211;SDS011;22247;48.586;13.492;2022-08-01T03:50:52;5.40;;;2.38;;
36211;SDS011;22247;48.586;13.492;2022-08-01T03:53:24;3.53;;;2.53;;
36211;SDS011;22247;48.586;13.492;2022-08-01T03:55:54;5.32;;;2.03;;
36211;SDS011;22247;48.586;13.492;2022-08-01T03:58:25;2.40;;;1.50;;
36211;SDS011;22247;48.586;13.492;2022-08-01T04:00:55;1.75;;;1.65;;
36211;SDS011;22247;48.586;13.492;2022-08-01T04:03:24;6.03;;;1.98;;
36211;SDS011;22247;48.586;13.492;2022-08-01T04:05:53;4.18;;;2.03;;
36211;SDS011;22247;48.586;13.492;2022-08-01T04:08:21;1.80;;;1.58;;
36211;SDS011;22247;48.586;13.492;2022-08-01T04:10:46;4.85;;;2.22;;
36211;SDS011;22247;48.586;13.492;2022-08-01T04:13:12;2.40;;;2.20;;
36211;SDS011;22247;48.586;13.492;2022-08-01T04:15:38;3.28;;;1.75;;
36211;SDS011;22247;48.586;13.492;2022-08-01T04:18:06;2.65;;;2.00;;
36211;SDS011;22247;48.586;13.492;2022-08-01T04:20:34;6.00;;;1.70;;
36211;SDS011;22247;48.586;13.492;2022-08-01T04:23:00;2.88;;;2.10;;
36211;SDS011;22247;48.586;13.492;2022-08-01T04:25:29;3.85;;;2.60;;
36211;SDS011;22247;48.586;13.492;2022-08-01T04:28:02;3.35;;;2.58;;
36211;SDS011;22247;48.586;13.492;2022-08-01T04:30:33;2.97;;;2.78;;
36211;SDS011;22247;48.586;13.492;2022-08-01T04:35:34;9.38;;;2.35;;
36211;SDS011;22247;48.586;13.492;2022-08-01T04:38:03;1.77;;;1.50;;
36211;SDS011;22247;48.586;13.492;2022-08-01T04:40:32;2.78;;;2.10;;
36211;SDS011;22247;48.586;13.492;2022-08-01T04:43:00;2.33;;;1.70;;
36211;SDS011;22247;48.586;13.492;2022-08-01T04:45:27;1.95;;;1.83;;
36211;SDS011;22247;48.586;13.492;2022-08-01T04:47:53;4.45;;;2.10;;
36211;SDS011;22247;48.586;13.492;2022-08-01T04:50:22;2.53;;;1.83;;
36211;SDS011;22247;48.586;13.492;2022-08-01T04:52:49;2.03;;;1.92;;
36211;SDS011;22247;48.586;13.492;2022-08-01T04:55:16;2.30;;;1.85;;
36211;SDS011;22247;48.586;13.492;2022-08-01T04:57:43;3.35;;;1.92;;
36211;SDS011;22247;48.586;13.492;2022-08-01T05:00:10;4.13;;;2.08;;
36211;SDS011;22247;48.586;13.492;2022-08-01T05:02:38;3.33;;;1.70;;
36211;SDS011;22247;48.586;13.492;2022-08-01T05:05:09;4.45;;;1.60;;
36211;SDS011;22247;48.586;13.492;2022-08-01T05:07:35;3.70;;;1.80;;
36211;SDS011;22247;48.586;13.492;2022-08-01T05:10:04;2.75;;;1.83;;
36211;SDS011;22247;48.586;13.492;2022-08-01T05:12:33;3.47;;;1.80;;
36211;SDS011;22247;48.586;13.492;2022-08-01T05:14:58;4.43;;;1.83;;
36211;SDS011;22247;48.586;13.492;2022-08-01T05:17:24;2.78;;;2.10;;
36211;SDS011;22247;48.586;13.492;2022-08-01T05:19:50;3.72;;;1.80;;
36211;SDS011;22247;48.586;13.492;2022-08-01T05:22:16;5.60;;;2.08;;
36211;SDS011;22247;48.586;13.492;2022-08-01T05:24:44;2.25;;;1.58;;
36211;SDS011;22247;48.586;13.492;2022-08-01T05:27:11;1.65;;;1.55;;
36211;SDS011;22247;48.586;13.492;2022-08-01T05:29:37;7.05;;;1.73;;
36211;SDS011;22247;48.586;13.492;2022-08-01T05:32:02;6.07;;;1.70;;
36211;SDS011;22247;48.586;13.492;2022-08-01T05:34:28;4.15;;;1.50;;
36211;SDS011;22247;48.586;13.492;2022-08-01T05:36:54;3.67;;;1.48;;
36211;SDS011;22247;48.586;13.492;2022-08-01T05:39:19;5.53;;;1.80;;
36211;SDS011;22247;48.586;13.492;2022-08-01T05:41:47;3.67;;;1.70;;
36211;SDS011;22247;48.586;13.492;2022-08-01T05:44:13;2.45;;;1.33;;
36211;SDS011;22247;48.586;13.492;2022-08-01T05:46:39;4.05;;;1.40;;
36211;SDS011;22247;48.586;13.492;2022-08-01T05:49:04;2.97;;;1.40;;
36211;SDS011;22247;48.586;13.492;2022-08-01T05:51:30;1.58;;;1.48;;
36211;SDS011;22247;48.586;13.492;2022-08-01T05:54:01;2.10;;;1.27;;
36211;SDS011;22247;48.586;13.492;2022-08-01T05:56:27;3.25;;;1.58;;
36211;SDS011;22247;48.586;13.492;2022-08-01T05:58:53;3.55;;;1.58;;
36211;SDS011;22247;48.586;13.492;2022-08-01T06:01:23;5.47;;;1.50;;
36211;SDS011;22247;48.586;13.492;2022-08-01T06:03:49;5.20;;;1.25;;
36211;SDS011;22247;48.586;13.492;2022-08-01T06:06:14;1.55;;;1.40;;
36211;SDS011;22247;48.586;13.492;2022-08-01T06:08:40;2.97;;;1.50;;
36211;SDS011;22247;48.586;13.492;2022-08-01T06:11:06;3.22;;;1.73;;
36211;SDS011;22247;48.586;13.492;2022-08-01T06:13:34;2.63;;;1.92;;
36211;SDS011;22247;48.586;13.492;2022-08-01T06:16:02;4.18;;;1.75;;
36211;SDS011;22247;48.586;13.492;2022-08-01T06:18:28;1.40;;;1.02;;
36211;SDS011;22247;48.586;13.492;2022-08-01T06:20:54;3.78;;;1.50;;
36211;SDS011;22247;48.586;13.492;2022-08-01T06:23:24;4.22;;;1.30;;
36211;SDS011;22247;48.586;13.492;2022-08-01T06:25:52;4.25;;;1.35;;
36211;SDS011;22247;48.586;13.492;2022-08-01T06:28:22;2.33;;;1.30;;
36211;SDS011;22247;48.586;13.492;2022-08-01T06:30:51;2.25;;;1.00;;
36211;SDS011;22247;48.586;13.492;2022-08-01T06:33:18;1.20;;;0.90;;
36211;SDS011;22247;48.586;13.492;2022-08-01T06:35:44;1.88;;;0.82;;
36211;SDS011;22247;48.586;13.492;2022-08-01T06:38:12;3.75;;;1.08;;
36211;SDS011;22247;48.586;13.492;2022-08-01T06:40:40;2.63;;;0.75;;
36211;SDS011;22247;48.586;13.492;2022-08-01T06:43:08;2.70;;;0.85;;
36211;SDS011;22247;48.586;13.492;2022-08-01T06:45:37;3.40;;;0.70;;
36211;SDS011;22247;48.586;13.492;2022-08-01T06:48:06;5.45;;;0.90;;
36211;SDS011;22247;48.586;13.492;2022-08-01T06:50:32;3.83;;;0.90;;
36211;SDS011;22247;48.586;13.492;2022-08-01T06:52:58;4.78;;;1.00;;
36211;SDS011;22247;48.586;13.492;2022-08-01T06:55:24;3.30;;;0.90;;
36211;SDS011;22247;48.586;13.492;2022-08-01T06:57:50;1.25;;;0.90;;
36211;SDS011;22247;48.586;13.492;2022-08-01T07:00:20;2.75;;;1.35;;
36211;SDS011;22247;48.586;13.492;2022-08-01T07:02:48;1.00;;;0.60;;
36211;SDS011;22247;48.586;13.492;2022-08-01T07:05:16;3.55;;;1.60;;
36211;SDS011;22247;48.586;13.492;2022-08-01T07:07:42;6.13;;;5.63;;
36211;SDS011;22247;48.586;13.492;2022-08-01T07:10:11;0.95;;;0.75;;
36211;SDS011;22247;48.586;13.492;2022-08-01T07:12:39;4.05;;;0.60;;
36211;SDS011;22247;48.586;13.492;2022-08-01T07:15:06;1.10;;;0.52;;
36211;SDS011;22247;48.586;13.492;2022-08-01T07:17:37;2.30;;;0.70;;
36211;SDS011;22247;48.586;13.492;2022-08-01T07:20:06;1.80;;;0.60;;
36211;SDS011;22247;48.586;13.492;2022-08-01T07:22:33;3.90;;;0.65;;
36211;SDS011;22247;48.586;13.492;2022-08-01T07:25:01;2.28;;;0.80;;
36211;SDS011;22247;48.586;13.492;2022-08-01T07:27:27;1.73;;;0.60;;
36211;SDS011;22247;48.586;13.492;2022-08-01T07:29:53;1.00;;;0.60;;
36211;SDS011;22247;48.586;13.492;2022-08-01T07:32:19;4.45;;;0.70;;
36211;SDS011;22247;48.586;13.492;2022-08-01T07:34:49;2.90;;;0.60;;
36211;SDS011;22247;48.586;13.492;2022-08-01T07:37:15;3.42;;;0.93;;
36211;SDS011;22247;48.586;13.492;2022-08-01T07:39:44;2.28;;;0.52;;
36211;SDS011;22247;48.586;13.492;2022-08-01T07:42:12;1.25;;;0.60;;
36211;SDS011;22247;48.586;13.492;2022-08-01T07:44:40;0.68;;;0.50;;
36211;SDS011;22247;48.586;13.492;2022-08-01T07:47:10;1.17;;;0.55;;
36211;SDS011;22247;48.586;13.492;2022-08-01T07:49:38;2.78;;;0.60;;
36211;SDS011;22247;48.586;13.492;2022-08-01T07:52:09;3.00;;;0.60;;
36211;SDS011;22247;48.586;13.492;2022-08-01T07:54:34;2.15;;;0.50;;
36211;SDS011;22247;48.586;13.492;2022-08-01T07:57:01;1.30;;;0.50;;
36211;SDS011;22247;48.586;13.492;2022-08-01T07:59:30;4.35;;;0.60;;
36211;SDS011;22247;48.586;13.492;2022-08-01T08:01:58;2.88;;;0.70;;
36211;SDS011;22247;48.586;13.492;2022-08-01T08:04:24;1.83;;;0.65;;
36211;SDS011;22247;48.586;13.492;2022-08-01T08:06:54;1.02;;;0.60;;
36211;SDS011;22247;48.586;13.492;2022-08-01T08:09:22;1.17;;;0.50;;
36211;SDS011;22247;48.586;13.492;2022-08-01T08:11:48;1.55;;;0.82;;
36211;SDS011;22247;48.586;13.492;2022-08-01T08:14:16;1.45;;;0.57;;
36211;SDS011;22247;48.586;13.492;2022-08-01T08:16:43;2.83;;;1.25;;
36211;SDS011;22247;48.586;13.492;2022-08-01T08:19:13;5.93;;;1.33;;
36211;SDS011;22247;48.586;13.492;2022-08-01T08:21:41;0.70;;;0.50;;
36211;SDS011;22247;48.586;13.492;2022-08-01T08:24:07;3.38;;;0.50;;
36211;SDS011;22247;48.586;13.492;2022-08-01T08:26:47;1.23;;;0.60;;
36211;SDS011;22247;48.586;13.492;2022-08-01T08:29:13;1.10;;;0.50;;
36211;SDS011;22247;48.586;13.492;2022-08-01T08:31:41;3.78;;;0.73;;
36211;SDS011;22247;48.586;13.492;2022-08-01T08:34:14;1.63;;;0.50;;
36211;SDS011;22247;48.586;13.492;2022-08-01T08:36:45;0.82;;;0.55;;
36211;SDS011;22247;48.586;13.492;2022-08-01T08:39:11;2.28;;;0.50;;
36211;SDS011;22247;48.586;13.492;2022-08-01T08:41:37;2.25;;;0.50;;
36211;SDS011;22247;48.586;13.492;2022-08-01T08:44:06;1.88;;;0.70;;
36211;SDS011;22247;48.586;13.492;2022-08-01T08:46:40;1.10;;;0.50;;
36211;SDS011;22247;48.586;13.492;2022-08-01T08:49:09;3.72;;;0.60;;
36211;SDS011;22247;48.586;13.492;2022-08-01T08:51:37;3.53;;;0.60;;
36211;SDS011;22247;48.586;13.492;2022-08-01T08:54:05;2.15;;;1.02;;
36211;SDS011;22247;48.586;13.492;2022-08-01T08:56:32;1.00;;;0.50;;
36211;SDS011;22247;48.586;13.492;2022-08-01T08:59:00;4.90;;;0.70;;
36211;SDS011;22247;48.586;13.492;2022-08-01T09:01:27;2.33;;;1.15;;
36211;SDS011;22247;48.586;13.492;2022-08-01T09:03:53;5.88;;;0.90;;
36211;SDS011;22247;48.586;13.492;2022-08-01T09:06:19;2.58;;;0.60;;
36211;SDS011;22247;48.586;13.492;2022-08-01T09:08:47;0.52;;;0.45;;
36211;SDS011;22247;48.586;13.492;2022-08-01T09:11:15;4.45;;;1.15;;
36211;SDS011;22247;48.586;13.492;2022-08-01T09:13:41;4.32;;;0.70;;
36211;SDS011;22247;48.586;13.492;2022-08-01T09:16:25;2.05;;;0.60;;
36211;SDS011;22247;48.586;13.492;2022-08-01T09:18:51;3.67;;;0.57;;
36211;SDS011;22247;48.586;13.492;2022-08-01T09:21:20;1.23;;;0.43;;
36211;SDS011;22247;48.586;13.492;2022-08-01T09:23:49;1.60;;;0.60;;
36211;SDS011;22247;48.586;13.492;2022-08-01T09:28:57;0.85;;;0.70;;
36211;SDS011;22247;48.586;13.492;2022-08-01T09:31:38;1.25;;;0.60;;
36211;SDS011;22247;48.586;13.492;2022-08-01T09:34:08;2.20;;;0.57;;
36211;SDS011;22247;48.586;13.492;2022-08-01T09:36:54;3.13;;;0.47;;
36211;SDS011;22247;48.586;13.492;2022-08-01T09:41:48;1.30;;;0.45;;
36211;SDS011;22247;48.586;13.492;2022-08-01T09:44:14;1.40;;;0.47;;
36211;SDS011;22247;48.586;13.492;2022-08-01T09:46:48;1.40;;;0.50;;
36211;SDS011;22247;48.586;13.492;2022-08-01T09:49:15;2.55;;;0.38;;
36211;SDS011;22247;48.586;13.492;2022-08-01T09:51:55;7.10;;;0.40;;
36211;SDS011;22247;48.586;13.492;2022-08-01T09:54:36;2.58;;;0.40;;
36211;SDS011;22247;48.586;13.492;2022-08-01T09:57:15;0.55;;;0.30;;
36211;SDS011;22247;48.586;13.492;2022-08-01T09:59:45;0.88;;;0.30;;
36211;SDS011;22247;48.586;13.492;2022-08-01T10:02:33;0.70;;;0.45;;
36211;SDS011;22247;48.586;13.492;2022-08-01T10:05:04;0.70;;;0.40;;
36211;SDS011;22247;48.586;13.492;2022-08-01T10:07:36;2.10;;;0.40;;
36211;SDS011;22247;48.586;13.492;2022-08-01T10:10:22;1.48;;;0.50;;
36211;SDS011;22247;48.586;13.492;2022-08-01T10:12:48;1.25;;;0.38;;
36211;SDS011;22247;48.586;13.492;2022-08-01T10:15:15;1.25;;;0.40;;
36211;SDS011;22247;48.586;13.492;2022-08-01T10:17:45;1.15;;;0.47;;
36211;SDS011;22247;48.586;13.492;2022-08-01T10:20:23;0.57;;;0.30;;
36211;SDS011;22247;48.586;13.492;2022-08-01T10:22:54;0.75;;;0.40;;
36211;SDS011;22247;48.586;13.492;2022-08-01T10:25:25;1.35;;;0.40;;
36211;SDS011;22247;48.586;13.492;2022-08-01T10:27:58;0.98;;;0.30;;
36211;SDS011;22247;48.586;13.492;2022-08-01T10:30:28;1.02;;;0.40;;
36211;SDS011;22247;48.586;13.492;2022-08-01T10:32:59;0.65;;;0.47;;
36211;SDS011;22247;48.586;13.492;2022-08-01T10:35:25;0.47;;;0.30;;
36211;SDS011;22247;48.586;13.492;2022-08-01T10:37:51;1.55;;;0.40;;
36211;SDS011;22247;48.586;13.492;2022-08-01T10:40:22;1.88;;;0.30;;
36211;SDS011;22247;48.586;13.492;2022-08-01T10:42:50;1.70;;;0.30;;
36211;SDS011;22247;48.586;13.492;2022-08-01T10:45:17;1.63;;;0.38;;
36211;SDS011;22247;48.586;13.492;2022-08-01T10:51:02;0.68;;;0.30;;
36211;SDS011;22247;48.586;13.492;2022-08-01T10:55:47;1.30;;;0.30;;
36211;SDS011;22247;48.586;13.492;2022-08-01T10:58:19;0.63;;;0.43;;
36211;SDS011;22247;48.586;13.492;2022-08-01T11:03:43;1.73;;;0.30;;
36211;SDS011;22247;48.586;13.492;2022-08-01T11:06:18;3.35;;;0.40;;
36211;SDS011;22247;48.586;13.492;2022-08-01T11:08:50;1.05;;;0.60;;
36211;SDS011;22247;48.586;13.492;2022-08-01T11:11:18;0.93;;;0.30;;
36211;SDS011;22247;48.586;13.492;2022-08-01T11:16:30;0.95;;;0.30;;
36211;SDS011;22247;48.586;13.492;2022-08-01T11:18:56;1.02;;;0.30;;
36211;SDS011;22247;48.586;13.492;2022-08-01T11:21:44;0.60;;;0.30;;
36211;SDS011;22247;48.586;13.492;2022-08-01T11:27:20;0.93;;;0.40;;
36211;SDS011;22247;48.586;13.492;2022-08-01T11:35:14;0.50;;;0.28;;
36211;SDS011;22247;48.586;13.492;2022-08-01T11:37:45;1.70;;;0.50;;
36211;SDS011;22247;48.586;13.492;2022-08-01T11:42:49;8.85;;;0.70;;
36211;SDS011;22247;48.586;13.492;2022-08-01T11:45:54;3.10;;;0.25;;
36211;SDS011;22247;48.586;13.492;2022-08-01T11:48:24;5.32;;;0.20;;
36211;SDS011;22247;48.586;13.492;2022-08-01T11:50:53;4.50;;;0.20;;
36211;SDS011;22247;48.586;13.492;2022-08-01T11:53:20;2.92;;;0.30;;
36211;SDS011;22247;48.586;13.492;2022-08-01T11:55:52;5.72;;;0.85;;
36211;SDS011;22247;48.586;13.492;2022-08-01T11:58:22;2.95;;;0.25;;
36211;SDS011;22247;48.586;13.492;2022-08-01T12:00:55;2.90;;;0.30;;
36211;SDS011;22247;48.586;13.492;2022-08-01T12:03:27;2.95;;;0.30;;
36211;SDS011;22247;48.586;13.492;2022-08-01T12:05:57;5.28;;;0.40;;
36211;SDS011;22247;48.586;13.492;2022-08-01T12:10:52;0.60;;;0.22;;
36211;SDS011;22247;48.586;13.492;2022-08-01T12:13:20;0.80;;;0.30;;
36211;SDS011;22247;48.586;13.492;2022-08-01T12:15:49;3.97;;;0.40;;
36211;SDS011;22247;48.586;13.492;2022-08-01T12:18:20;2.05;;;0.70;;
36211;SDS011;22247;48.586;13.492;2022-08-01T12:20:47;3.53;;;0.30;;
36211;SDS011;22247;48.586;13.492;2022-08-01T12:23:16;2.33;;;0.40;;
36211;SDS011;22247;48.586;13.492;2022-08-01T12:25:48;1.67;;;0.20;;
36211;SDS011;22247;48.586;13.492;2022-08-01T12:28:16;3.25;;;0.20;;
36211;SDS011;22247;48.586;13.492;2022-08-01T12:30:46;0.95;;;0.20;;
36211;SDS011;22247;48.586;13.492;2022-08-01T12:33:16;1.48;;;0.28;;
36211;SDS011;22247;48.586;13.492;2022-08-01T12:35:43;0.65;;;0.20;;
36211;SDS011;22247;48.586;13.492;2022-08-01T12:38:21;2.95;;;0.28;;
36211;SDS011;22247;48.586;13.492;2022-08-01T12:40:49;3.00;;;0.20;;
36211;SDS011;22247;48.586;13.492;2022-08-01T12:43:16;4.70;;;0.20;;
36211;SDS011;22247;48.586;13.492;2022-08-01T12:45:44;1.48;;;0.10;;
36211;SDS011;22247;48.586;13.492;2022-08-01T12:48:12;0.88;;;0.20;;
36211;SDS011;22247;48.586;13.492;2022-08-01T12:50:43;3.45;;;0.20;;
36211;SDS011;22247;48.586;13.492;2022-08-01T12:53:11;1.20;;;0.20;;
36211;SDS011;22247;48.586;13.492;2022-08-01T12:58:18;2.95;;;0.45;;
36211;SDS011;22247;48.586;13.492;2022-08-01T13:00:45;1.08;;;0.20;;
36211;SDS011;22247;48.586;13.492;2022-08-01T13:03:14;0.50;;;0.20;;
36211;SDS011;22247;48.586;13.492;2022-08-01T13:08:19;8.23;;;0.85;;
36211;SDS011;22247;48.586;13.492;2022-08-01T13:10:46;0.43;;;0.20;;
36211;SDS011;22247;48.586;13.492;2022-08-01T13:13:16;1.48;;;0.30;;
36211;SDS011;22247;48.586;13.492;2022-08-01T13:15:44;1.02;;;0.35;;
36211;SDS011;22247;48.586;13.492;2022-08-01T13:23:39;1.70;;;0.40;;
36211;SDS011;22247;48.586;13.492;2022-08-01T13:26:08;0.95;;;0.40;;
36211;SDS011;22247;48.586;13.492;2022-08-01T13:28:34;1.85;;;1.13;;
36211;SDS011;22247;48.586;13.492;2022-08-01T13:31:03;0.95;;;0.50;;
36211;SDS011;22247;48.586;13.492;2022-08-01T13:33:43;1.92;;;0.50;;
36211;SDS011;22247;48.586;13.492;2022-08-01T13:36:13;0.80;;;0.47;;
36211;SDS011;22247;48.586;13.492;2022-08-01T13:38:41;3.22;;;0.30;;
36211;SDS011;22247;48.586;13.492;2022-08-01T13:41:26;0.45;;;0.30;;
36211;SDS011;22247;48.586;13.492;2022-08-01T13:43:58;1.08;;;0.40;;
36211;SDS011;22247;48.586;13.492;2022-08-01T13:46:23;0.50;;;0.40;;
36211;SDS011;22247;48.586;13.492;2022-08-01T13:48:49;0.63;;;0.50;;
36211;SDS011;22247;48.586;13.492;2022-08-01T13:51:15;2.58;;;0.98;;
36211;SDS011;22247;48.586;13.492;2022-08-01T13:53:40;1.20;;;0.30;;
36211;SDS011;22247;48.586;13.492;2022-08-01T13:56:06;2.83;;;0.40;;
36211;SDS011;22247;48.586;13.492;2022-08-01T13:58:34;4.10;;;0.20;;
36211;SDS011;22247;48.586;13.492;2022-08-01T14:01:00;1.50;;;0.30;;
36211;SDS011;22247;48.586;13.492;2022-08-01T14:03:30;1.38;;;0.30;;
36211;SDS011;22247;48.586;13.492;2022-08-01T14:05:56;0.65;;;0.30;;
36211;SDS011;22247;48.586;13.492;2022-08-01T14:08:24;0.55;;;0.30;;
36211;SDS011;22247;48.586;13.492;2022-08-01T14:10:50;2.10;;;0.40;;
36211;SDS011;22247;48.586;13.492;2022-08-01T14:13:18;2.42;;;0.30;;
36211;SDS011;22247;48.586;13.492;2022-08-01T14:15:44;0.80;;;0.30;;
36211;SDS011;22247;48.586;13.492;2022-08-01T14:18:10;0.63;;;0.50;;
36211;SDS011;22247;48.586;13.492;2022-08-01T14:20:37;2.38;;;0.32;;
36211;SDS011;22247;48.586;13.492;2022-08-01T14:23:04;2.70;;;0.40;;
36211;SDS011;22247;48.586;13.492;2022-08-01T14:25:31;3.47;;;0.35;;
36211;SDS011;22247;48.586;13.492;2022-08-01T14:27:59;0.40;;;0.30;;
36211;SDS011;22247;48.586;13.492;2022-08-01T14:30:25;4.18;;;0.40;;
36211;SDS011;22247;48.586;13.492;2022-08-01T14:32:53;1.55;;;0.30;;
36211;SDS011;22247;48.586;13.492;2022-08-01T14:35:19;0.40;;;0.20;;
36211;SDS011;22247;48.586;13.492;2022-08-01T14:37:47;0.60;;;0.20;;
36211;SDS011;22247;48.586;13.492;2022-08-01T14:40:12;5.97;;;0.20;;
36211;SDS011;22247;48.586;13.492;2022-08-01T14:42:45;3.42;;;0.20;;
36211;SDS011;22247;48.586;13.492;2022-08-01T14:45:11;1.20;;;0.20;;
36211;SDS011;22247;48.586;13.492;2022-08-01T14:47:38;1.17;;;0.15;;
36211;SDS011;22247;48.586;13.492;2022-08-01T14:50:06;0.65;;;0.20;;
36211;SDS011;22247;48.586;13.492;2022-08-01T14:52:36;0.43;;;0.15;;
36211;SDS011;22247;48.586;13.492;2022-08-01T14:55:04;1.77;;;0.20;;
36211;SDS011;22247;48.586;13.492;2022-08-01T14:57:34;2.45;;;0.20;;
36211;SDS011;22247;48.586;13.492;2022-08-01T15:00:02;1.58;;;0.25;;
36211;SDS011;22247;48.586;13.492;2022-08-01T15:02:29;4.38;;;0.90;;
36211;SDS011;22247;48.586;13.492;2022-08-01T15:04:57;3.38;;;0.20;;
36211;SDS011;22247;48.586;13.492;2022-08-01T15:07:26;1.05;;;0.10;;
36211;SDS011;22247;48.586;13.492;2022-08-01T15:09:54;3.95;;;0.10;;
36211;SDS011;22247;48.586;13.492;2022-08-01T15:12:19;2.92;;;0.20;;
36211;SDS011;22247;48.586;13.492;2022-08-01T15:14:50;0.47;;;0.20;;
36211;SDS011;22247;48.586;13.492;2022-08-01T15:17:22;1.13;;;0.30;;
36211;SDS011;22247;48.586;13.492;2022-08-01T15:19:59;0.35;;;0.20;;
36211;SDS011;22247;48.586;13.492;2022-08-01T15:22:27;4.72;;;0.22;;
36211;SDS011;22247;48.586;13.492;2022-08-01T15:24:53;2.53;;;0.30;;
36211;SDS011;22247;48.586;13.492;2022-08-01T15:27:25;0.22;;;0.10;;
36211;SDS011;22247;48.586;13.492;2022-08-01T15:29:52;0.65;;;0.20;;
36211;SDS011;22247;48.586;13.492;2022-08-01T15:32:23;1.52;;;0.20;;
36211;SDS011;22247;48.586;13.492;2022-08-01T15:34:51;1.40;;;0.10;;
36211;SDS011;22247;48.586;13.492;2022-08-01T15:37:22;1.17;;;0.20;;
36211;SDS011;22247;48.586;13.492;2022-08-01T15:39:49;2.15;;;0.10;;
36211;SDS011;22247;48.586;13.492;2022-08-01T15:42:16;1.70;;;0.10;;
36211;SDS011;22247;48.586;13.492;2022-08-01T15:44:45;2.28;;;0.10;;
36211;SDS011;22247;48.586;13.492;2022-08-01T15:47:11;3.10;;;0.20;;